sensor_id;sensor_type;location;lat;lon;timestamp;P1;durP1;ratioP1;P2;durP2;ratioP2
1725;SDS011;41776;48.260;8.928;2024-03-22T00:01:45;15.13;;;7.57;;
1725;SDS011;41776;48.260;8.928;2024-03-22T00:04:14;12.90;;;6.90;;
1725;SDS011;41776;48.260;8.928;2024-03-22T00:06:42;14.20;;;8.30;;
1725;SDS011;41776;48.260;8.928;2024-03-22T00:09:08;19.33;;;8.57;;
1725;SDS011;41776;48.260;8.928;2024-03-22T00:11:38;21.87;;;8.73;;
1725;SDS011;41776;48.260;8.928;2024-03-22T00:14:05;20.23;;;8.13;;
1725;SDS011;41776;48.260;8.928;2024-03-22T00:16:32;14.50;;;7.37;;
1725;SDS011;41776;48.260;8.928;2024-03-22T00:19:02;18.17;;;8.87;;
1725;SDS011;41776;48.260;8.928;2024-03-22T00:21:30;16.37;;;8.43;;
1725;SDS011;41776;48.260;8.928;2024-03-22T00:23:56;14.93;;;8.33;;
1725;SDS011;41776;48.260;8.928;2024-03-22T00:26:26;16.27;;;7.93;;
1725;SDS011;41776;48.260;8.928;2024-03-22T00:28:51;16.80;;;8.73;;
1725;SDS011;41776;48.260;8.928;2024-03-22T00:31:18;15.77;;;7.67;;
1725;SDS011;41776;48.260;8.928;2024-03-22T00:33:44;13.77;;;7.97;;
1725;SDS011;41776;48.260;8.928;2024-03-22T00:36:12;14.57;;;7.77;;
1725;SDS011;41776;48.260;8.928;2024-03-22T00:38:37;15.37;;;8.20;;
1725;SDS011;41776;48.260;8.928;2024-03-22T00:41:04;18.90;;;8.00;;
1725;SDS011;41776;48.260;8.928;2024-03-22T00:43:34;16.83;;;7.87;;
1725;SDS011;41776;48.260;8.928;2024-03-22T00:46:00;19.33;;;8.63;;
1725;SDS011;41776;48.260;8.928;2024-03-22T00:48:27;15.37;;;8.00;;
1725;SDS011;41776;48.260;8.928;2024-03-22T00:50:54;14.90;;;7.23;;
1725;SDS011;41776;48.260;8.928;2024-03-22T00:53:24;15.87;;;7.70;;
1725;SDS011;41776;48.260;8.928;2024-03-22T00:55:51;18.23;;;7.20;;
1725;SDS011;41776;48.260;8.928;2024-03-22T00:58:17;16.57;;;7.17;;
1725;SDS011;41776;48.260;8.928;2024-03-22T01:00:44;14.20;;;7.70;;
1725;SDS011;41776;48.260;8.928;2024-03-22T01:03:13;16.03;;;7.43;;
1725;SDS011;41776;48.260;8.928;2024-03-22T01:05:39;16.17;;;8.63;;
1725;SDS011;41776;48.260;8.928;2024-03-22T01:08:07;18.53;;;8.70;;
1725;SDS011;41776;48.260;8.928;2024-03-22T01:10:35;18.60;;;8.93;;
1725;SDS011;41776;48.260;8.928;2024-03-22T01:13:03;20.57;;;8.67;;
1725;SDS011;41776;48.260;8.928;2024-03-22T01:15:31;17.03;;;8.73;;
1725;SDS011;41776;48.260;8.928;2024-03-22T01:17:56;22.10;;;8.30;;
1725;SDS011;41776;48.260;8.928;2024-03-22T01:20:23;17.93;;;8.37;;
1725;SDS011;41776;48.260;8.928;2024-03-22T01:22:49;17.67;;;8.87;;
1725;SDS011;41776;48.260;8.928;2024-03-22T01:25:15;22.37;;;9.43;;
1725;SDS011;41776;48.260;8.928;2024-03-22T01:27:42;20.77;;;8.47;;
1725;SDS011;41776;48.260;8.928;2024-03-22T01:30:09;21.93;;;9.30;;
1725;SDS011;41776;48.260;8.928;2024-03-22T01:32:36;19.73;;;9.77;;
1725;SDS011;41776;48.260;8.928;2024-03-22T01:35:03;21.63;;;9.90;;
1725;SDS011;41776;48.260;8.928;2024-03-22T01:37:29;16.93;;;8.87;;
1725;SDS011;41776;48.260;8.928;2024-03-22T01:39:55;21.00;;;9.33;;
1725;SDS011;41776;48.260;8.928;2024-03-22T01:42:21;22.50;;;9.10;;
1725;SDS011;41776;48.260;8.928;2024-03-22T01:44:49;19.47;;;9.97;;
1725;SDS011;41776;48.260;8.928;2024-03-22T01:47:15;17.33;;;9.27;;
1725;SDS011;41776;48.260;8.928;2024-03-22T01:49:42;23.10;;;9.77;;
1725;SDS011;41776;48.260;8.928;2024-03-22T01:52:08;27.53;;;9.43;;
1725;SDS011;41776;48.260;8.928;2024-03-22T01:54:35;16.20;;;8.83;;
1725;SDS011;41776;48.260;8.928;2024-03-22T01:57:00;19.40;;;8.70;;
1725;SDS011;41776;48.260;8.928;2024-03-22T01:59:27;21.17;;;9.43;;
1725;SDS011;41776;48.260;8.928;2024-03-22T02:01:55;20.03;;;8.70;;
1725;SDS011;41776;48.260;8.928;2024-03-22T02:04:21;21.23;;;10.33;;
1725;SDS011;41776;48.260;8.928;2024-03-22T02:06:47;19.33;;;9.23;;
1725;SDS011;41776;48.260;8.928;2024-03-22T02:09:14;19.60;;;10.30;;
1725;SDS011;41776;48.260;8.928;2024-03-22T02:11:40;28.97;;;9.87;;
1725;SDS011;41776;48.260;8.928;2024-03-22T02:14:09;18.37;;;9.27;;
1725;SDS011;41776;48.260;8.928;2024-03-22T02:16:35;21.53;;;8.93;;
1725;SDS011;41776;48.260;8.928;2024-03-22T02:19:03;19.27;;;8.70;;
1725;SDS011;41776;48.260;8.928;2024-03-22T02:21:28;22.33;;;9.77;;
1725;SDS011;41776;48.260;8.928;2024-03-22T02:23:56;22.73;;;9.07;;
1725;SDS011;41776;48.260;8.928;2024-03-22T02:26:22;18.53;;;8.77;;
1725;SDS011;41776;48.260;8.928;2024-03-22T02:28:48;20.03;;;9.10;;
1725;SDS011;41776;48.260;8.928;2024-03-22T02:31:14;18.13;;;9.03;;
1725;SDS011;41776;48.260;8.928;2024-03-22T02:33:40;21.83;;;9.47;;
1725;SDS011;41776;48.260;8.928;2024-03-22T02:36:06;21.63;;;8.33;;
1725;SDS011;41776;48.260;8.928;2024-03-22T02:38:32;18.30;;;9.13;;
1725;SDS011;41776;48.260;8.928;2024-03-22T02:40:59;19.00;;;9.60;;
1725;SDS011;41776;48.260;8.928;2024-03-22T02:43:25;15.93;;;8.57;;
1725;SDS011;41776;48.260;8.928;2024-03-22T02:45:51;22.27;;;9.13;;
1725;SDS011;41776;48.260;8.928;2024-03-22T02:48:17;20.27;;;9.27;;
1725;SDS011;41776;48.260;8.928;2024-03-22T02:50:43;20.67;;;8.77;;
1725;SDS011;41776;48.260;8.928;2024-03-22T02:53:09;17.43;;;8.77;;
1725;SDS011;41776;48.260;8.928;2024-03-22T02:55:36;19.77;;;9.83;;
1725;SDS011;41776;48.260;8.928;2024-03-22T02:58:04;20.93;;;9.97;;
1725;SDS011;41776;48.260;8.928;2024-03-22T03:00:30;21.27;;;9.93;;
1725;SDS011;41776;48.260;8.928;2024-03-22T03:02:56;25.30;;;9.80;;
1725;SDS011;41776;48.260;8.928;2024-03-22T03:05:22;17.57;;;10.00;;
1725;SDS011;41776;48.260;8.928;2024-03-22T03:07:49;18.53;;;10.30;;
1725;SDS011;41776;48.260;8.928;2024-03-22T03:10:15;23.20;;;10.27;;
1725;SDS011;41776;48.260;8.928;2024-03-22T03:12:42;26.83;;;10.03;;
1725;SDS011;41776;48.260;8.928;2024-03-22T03:15:09;27.48;;;13.82;;
1725;SDS011;41776;48.260;8.928;2024-03-22T03:17:35;26.37;;;11.43;;
1725;SDS011;41776;48.260;8.928;2024-03-22T03:20:01;24.77;;;10.33;;
1725;SDS011;41776;48.260;8.928;2024-03-22T03:22:32;26.77;;;10.87;;
1725;SDS011;41776;48.260;8.928;2024-03-22T03:24:58;25.87;;;10.50;;
1725;SDS011;41776;48.260;8.928;2024-03-22T03:27:24;23.40;;;10.07;;
1725;SDS011;41776;48.260;8.928;2024-03-22T03:29:50;24.73;;;10.57;;
1725;SDS011;41776;48.260;8.928;2024-03-22T03:32:18;22.13;;;10.17;;
1725;SDS011;41776;48.260;8.928;2024-03-22T03:34:43;21.53;;;10.00;;
1725;SDS011;41776;48.260;8.928;2024-03-22T03:37:10;22.87;;;10.67;;
1725;SDS011;41776;48.260;8.928;2024-03-22T03:39:35;22.43;;;9.90;;
1725;SDS011;41776;48.260;8.928;2024-03-22T03:42:02;23.70;;;10.10;;
1725;SDS011;41776;48.260;8.928;2024-03-22T03:44:27;22.87;;;9.50;;
1725;SDS011;41776;48.260;8.928;2024-03-22T03:46:54;22.07;;;9.83;;
1725;SDS011;41776;48.260;8.928;2024-03-22T03:49:21;19.20;;;10.50;;
1725;SDS011;41776;48.260;8.928;2024-03-22T03:51:50;21.57;;;10.53;;
1725;SDS011;41776;48.260;8.928;2024-03-22T03:54:33;23.40;;;9.63;;
1725;SDS011;41776;48.260;8.928;2024-03-22T03:56:59;18.97;;;9.47;;
1725;SDS011;41776;48.260;8.928;2024-03-22T03:59:25;22.73;;;10.47;;
1725;SDS011;41776;48.260;8.928;2024-03-22T04:01:51;24.03;;;11.17;;
1725;SDS011;41776;48.260;8.928;2024-03-22T04:04:17;31.43;;;12.00;;
1725;SDS011;41776;48.260;8.928;2024-03-22T04:06:43;24.73;;;10.30;;
1725;SDS011;41776;48.260;8.928;2024-03-22T04:09:09;26.60;;;10.57;;
1725;SDS011;41776;48.260;8.928;2024-03-22T04:11:37;27.37;;;10.37;;
1725;SDS011;41776;48.260;8.928;2024-03-22T04:14:02;20.63;;;9.87;;
1725;SDS011;41776;48.260;8.928;2024-03-22T04:16:30;23.43;;;10.23;;
1725;SDS011;41776;48.260;8.928;2024-03-22T04:18:55;20.70;;;10.33;;
1725;SDS011;41776;48.260;8.928;2024-03-22T04:21:22;22.67;;;10.67;;
1725;SDS011;41776;48.260;8.928;2024-03-22T04:23:48;29.27;;;11.03;;
1725;SDS011;41776;48.260;8.928;2024-03-22T04:26:14;22.80;;;10.67;;
1725;SDS011;41776;48.260;8.928;2024-03-22T04:28:41;27.83;;;11.17;;
1725;SDS011;41776;48.260;8.928;2024-03-22T04:31:08;19.40;;;10.13;;
1725;SDS011;41776;48.260;8.928;2024-03-22T04:33:35;20.13;;;9.93;;
1725;SDS011;41776;48.260;8.928;2024-03-22T04:36:02;22.20;;;10.67;;
1725;SDS011;41776;48.260;8.928;2024-03-22T04:38:28;31.43;;;11.07;;
1725;SDS011;41776;48.260;8.928;2024-03-22T04:40:55;24.63;;;10.83;;
1725;SDS011;41776;48.260;8.928;2024-03-22T04:43:23;22.67;;;11.07;;
1725;SDS011;41776;48.260;8.928;2024-03-22T04:45:51;22.57;;;10.13;;
1725;SDS011;41776;48.260;8.928;2024-03-22T04:48:18;23.33;;;9.83;;
1725;SDS011;41776;48.260;8.928;2024-03-22T04:50:45;19.27;;;10.00;;
1725;SDS011;41776;48.260;8.928;2024-03-22T04:53:12;22.33;;;10.20;;
1725;SDS011;41776;48.260;8.928;2024-03-22T04:55:39;23.17;;;9.93;;
1725;SDS011;41776;48.260;8.928;2024-03-22T04:58:09;23.13;;;9.53;;
1725;SDS011;41776;48.260;8.928;2024-03-22T05:00:36;21.73;;;9.23;;
1725;SDS011;41776;48.260;8.928;2024-03-22T05:03:03;19.53;;;9.33;;
1725;SDS011;41776;48.260;8.928;2024-03-22T05:05:30;19.33;;;9.17;;
1725;SDS011;41776;48.260;8.928;2024-03-22T05:07:55;23.80;;;9.17;;
1725;SDS011;41776;48.260;8.928;2024-03-22T05:10:22;17.67;;;8.90;;
1725;SDS011;41776;48.260;8.928;2024-03-22T05:12:47;24.40;;;9.27;;
1725;SDS011;41776;48.260;8.928;2024-03-22T05:15:14;19.73;;;9.57;;
1725;SDS011;41776;48.260;8.928;2024-03-22T05:17:39;19.17;;;9.47;;
1725;SDS011;41776;48.260;8.928;2024-03-22T05:20:10;24.73;;;9.37;;
1725;SDS011;41776;48.260;8.928;2024-03-22T05:22:36;21.43;;;9.87;;
1725;SDS011;41776;48.260;8.928;2024-03-22T05:25:03;21.30;;;9.33;;
1725;SDS011;41776;48.260;8.928;2024-03-22T05:27:30;23.73;;;9.30;;
1725;SDS011;41776;48.260;8.928;2024-03-22T05:29:58;23.23;;;10.00;;
1725;SDS011;41776;48.260;8.928;2024-03-22T05:32:26;17.80;;;9.40;;
1725;SDS011;41776;48.260;8.928;2024-03-22T05:34:53;25.50;;;10.07;;
1725;SDS011;41776;48.260;8.928;2024-03-22T05:37:20;22.13;;;9.83;;
1725;SDS011;41776;48.260;8.928;2024-03-22T05:39:46;24.77;;;10.60;;
1725;SDS011;41776;48.260;8.928;2024-03-22T05:42:12;25.43;;;9.63;;
1725;SDS011;41776;48.260;8.928;2024-03-22T05:44:40;22.50;;;9.40;;
1725;SDS011;41776;48.260;8.928;2024-03-22T05:47:08;21.17;;;9.10;;
1725;SDS011;41776;48.260;8.928;2024-03-22T05:49:34;20.33;;;8.97;;
1725;SDS011;41776;48.260;8.928;2024-03-22T05:52:00;19.63;;;8.77;;
1725;SDS011;41776;48.260;8.928;2024-03-22T05:54:31;19.40;;;8.57;;
1725;SDS011;41776;48.260;8.928;2024-03-22T05:56:57;17.03;;;8.57;;
1725;SDS011;41776;48.260;8.928;2024-03-22T05:59:23;24.47;;;9.23;;
1725;SDS011;41776;48.260;8.928;2024-03-22T06:01:50;18.60;;;8.73;;
1725;SDS011;41776;48.260;8.928;2024-03-22T06:04:19;20.13;;;8.90;;
1725;SDS011;41776;48.260;8.928;2024-03-22T06:06:44;17.33;;;8.30;;
1725;SDS011;41776;48.260;8.928;2024-03-22T06:09:13;18.43;;;7.97;;
1725;SDS011;41776;48.260;8.928;2024-03-22T06:11:51;15.23;;;8.30;;
1725;SDS011;41776;48.260;8.928;2024-03-22T06:14:18;19.20;;;8.37;;
1725;SDS011;41776;48.260;8.928;2024-03-22T06:16:43;16.80;;;8.13;;
1725;SDS011;41776;48.260;8.928;2024-03-22T06:19:10;21.27;;;8.57;;
1725;SDS011;41776;48.260;8.928;2024-03-22T06:21:35;20.13;;;9.23;;
1725;SDS011;41776;48.260;8.928;2024-03-22T06:24:02;20.23;;;8.97;;
1725;SDS011;41776;48.260;8.928;2024-03-22T06:26:28;15.83;;;8.07;;
1725;SDS011;41776;48.260;8.928;2024-03-22T06:28:56;20.30;;;9.03;;
1725;SDS011;41776;48.260;8.928;2024-03-22T06:31:21;21.63;;;9.93;;
1725;SDS011;41776;48.260;8.928;2024-03-22T06:33:48;18.37;;;8.53;;
1725;SDS011;41776;48.260;8.928;2024-03-22T06:36:13;21.57;;;7.13;;
1725;SDS011;41776;48.260;8.928;2024-03-22T06:38:40;17.05;;;8.90;;
1725;SDS011;41776;48.260;8.928;2024-03-22T06:41:06;18.63;;;8.23;;
1725;SDS011;41776;48.260;8.928;2024-03-22T06:43:31;18.93;;;9.27;;
1725;SDS011;41776;48.260;8.928;2024-03-22T06:45:59;22.50;;;8.40;;
1725;SDS011;41776;48.260;8.928;2024-03-22T06:48:25;14.00;;;7.60;;
1725;SDS011;41776;48.260;8.928;2024-03-22T06:50:51;17.47;;;8.00;;
1725;SDS011;41776;48.260;8.928;2024-03-22T06:53:17;22.07;;;8.83;;
1725;SDS011;41776;48.260;8.928;2024-03-22T06:55:43;19.83;;;8.83;;
1725;SDS011;41776;48.260;8.928;2024-03-22T06:58:09;19.27;;;9.57;;
1725;SDS011;41776;48.260;8.928;2024-03-22T07:00:36;18.40;;;8.40;;
1725;SDS011;41776;48.260;8.928;2024-03-22T07:03:03;21.77;;;8.00;;
1725;SDS011;41776;48.260;8.928;2024-03-22T07:05:29;19.23;;;7.80;;
1725;SDS011;41776;48.260;8.928;2024-03-22T07:07:55;18.13;;;7.33;;
1725;SDS011;41776;48.260;8.928;2024-03-22T07:10:22;15.60;;;7.90;;
1725;SDS011;41776;48.260;8.928;2024-03-22T07:12:49;17.27;;;7.93;;
1725;SDS011;41776;48.260;8.928;2024-03-22T07:15:16;17.50;;;7.47;;
1725;SDS011;41776;48.260;8.928;2024-03-22T07:17:41;15.80;;;7.43;;
1725;SDS011;41776;48.260;8.928;2024-03-22T07:20:10;10.87;;;6.27;;
1725;SDS011;41776;48.260;8.928;2024-03-22T07:22:35;15.10;;;7.63;;
1725;SDS011;41776;48.260;8.928;2024-03-22T07:25:02;14.37;;;6.53;;
1725;SDS011;41776;48.260;8.928;2024-03-22T07:27:27;16.63;;;6.73;;
1725;SDS011;41776;48.260;8.928;2024-03-22T07:29:56;12.67;;;6.17;;
1725;SDS011;41776;48.260;8.928;2024-03-22T07:32:21;13.13;;;6.67;;
1725;SDS011;41776;48.260;8.928;2024-03-22T07:34:48;10.87;;;6.03;;
1725;SDS011;41776;48.260;8.928;2024-03-22T07:37:15;13.13;;;6.53;;
1725;SDS011;41776;48.260;8.928;2024-03-22T07:39:41;11.53;;;6.23;;
1725;SDS011;41776;48.260;8.928;2024-03-22T07:42:06;15.00;;;7.30;;
1725;SDS011;41776;48.260;8.928;2024-03-22T07:44:33;14.97;;;7.20;;
1725;SDS011;41776;48.260;8.928;2024-03-22T07:46:58;11.50;;;6.20;;
1725;SDS011;41776;48.260;8.928;2024-03-22T07:49:25;11.63;;;6.22;;
1725;SDS011;41776;48.260;8.928;2024-03-22T07:51:50;13.50;;;6.97;;
1725;SDS011;41776;48.260;8.928;2024-03-22T07:54:19;17.97;;;7.10;;
1725;SDS011;41776;48.260;8.928;2024-03-22T07:56:45;14.95;;;6.50;;
1725;SDS011;41776;48.260;8.928;2024-03-22T07:59:11;11.88;;;5.60;;
1725;SDS011;41776;48.260;8.928;2024-03-22T08:01:37;9.27;;;5.43;;
1725;SDS011;41776;48.260;8.928;2024-03-22T08:04:03;11.13;;;5.47;;
1725;SDS011;41776;48.260;8.928;2024-03-22T08:06:29;12.50;;;6.22;;
1725;SDS011;41776;48.260;8.928;2024-03-22T08:08:55;10.88;;;5.55;;
1725;SDS011;41776;48.260;8.928;2024-03-22T08:11:22;11.27;;;5.90;;
1725;SDS011;41776;48.260;8.928;2024-03-22T08:13:49;12.40;;;5.25;;
1725;SDS011;41776;48.260;8.928;2024-03-22T08:16:14;8.00;;;3.92;;
1725;SDS011;41776;48.260;8.928;2024-03-22T08:18:40;9.35;;;4.93;;
1725;SDS011;41776;48.260;8.928;2024-03-22T08:21:06;10.70;;;4.78;;
1725;SDS011;41776;48.260;8.928;2024-03-22T08:23:32;8.43;;;4.88;;
1725;SDS011;41776;48.260;8.928;2024-03-22T08:25:59;6.63;;;4.47;;
1725;SDS011;41776;48.260;8.928;2024-03-22T08:28:26;8.68;;;4.70;;
1725;SDS011;41776;48.260;8.928;2024-03-22T08:30:52;9.38;;;4.68;;
1725;SDS011;41776;48.260;8.928;2024-03-22T08:33:18;8.48;;;4.75;;
1725;SDS011;41776;48.260;8.928;2024-03-22T08:35:44;8.48;;;4.25;;
1725;SDS011;41776;48.260;8.928;2024-03-22T08:38:10;8.00;;;4.10;;
1725;SDS011;41776;48.260;8.928;2024-03-22T08:40:36;9.60;;;4.15;;
1725;SDS011;41776;48.260;8.928;2024-03-22T08:43:03;10.75;;;5.00;;
1725;SDS011;41776;48.260;8.928;2024-03-22T08:45:30;10.10;;;4.38;;
1725;SDS011;41776;48.260;8.928;2024-03-22T08:47:56;11.23;;;4.60;;
1725;SDS011;41776;48.260;8.928;2024-03-22T08:50:22;10.50;;;5.18;;
1725;SDS011;41776;48.260;8.928;2024-03-22T08:52:48;8.98;;;4.65;;
1725;SDS011;41776;48.260;8.928;2024-03-22T08:55:14;9.77;;;4.75;;
1725;SDS011;41776;48.260;8.928;2024-03-22T08:57:40;13.30;;;5.07;;
1725;SDS011;41776;48.260;8.928;2024-03-22T09:00:06;9.50;;;4.95;;
1725;SDS011;41776;48.260;8.928;2024-03-22T09:02:35;11.60;;;4.82;;
1725;SDS011;41776;48.260;8.928;2024-03-22T09:05:00;7.55;;;4.40;;
1725;SDS011;41776;48.260;8.928;2024-03-22T09:07:27;10.27;;;4.75;;
1725;SDS011;41776;48.260;8.928;2024-03-22T09:09:52;7.97;;;4.20;;
1725;SDS011;41776;48.260;8.928;2024-03-22T09:12:18;7.85;;;4.78;;
1725;SDS011;41776;48.260;8.928;2024-03-22T09:14:44;10.20;;;5.13;;
1725;SDS011;41776;48.260;8.928;2024-03-22T09:17:11;9.75;;;4.65;;
1725;SDS011;41776;48.260;8.928;2024-03-22T09:19:38;9.02;;;4.93;;
1725;SDS011;41776;48.260;8.928;2024-03-22T09:22:04;18.30;;;5.22;;
1725;SDS011;41776;48.260;8.928;2024-03-22T09:24:30;10.07;;;5.18;;
1725;SDS011;41776;48.260;8.928;2024-03-22T09:26:56;13.63;;;5.80;;
1725;SDS011;41776;48.260;8.928;2024-03-22T09:29:23;10.95;;;5.43;;
1725;SDS011;41776;48.260;8.928;2024-03-22T09:31:49;8.82;;;4.40;;
1725;SDS011;41776;48.260;8.928;2024-03-22T09:34:15;6.22;;;3.85;;
1725;SDS011;41776;48.260;8.928;2024-03-22T09:36:42;9.45;;;4.43;;
1725;SDS011;41776;48.260;8.928;2024-03-22T09:39:09;11.73;;;5.18;;
1725;SDS011;41776;48.260;8.928;2024-03-22T09:41:35;11.30;;;4.53;;
1725;SDS011;41776;48.260;8.928;2024-03-22T09:44:08;8.18;;;4.65;;
1725;SDS011;41776;48.260;8.928;2024-03-22T09:46:41;10.02;;;4.25;;
1725;SDS011;41776;48.260;8.928;2024-03-22T09:49:08;6.97;;;4.22;;
1725;SDS011;41776;48.260;8.928;2024-03-22T09:51:35;6.03;;;3.60;;
1725;SDS011;41776;48.260;8.928;2024-03-22T09:54:04;7.63;;;3.42;;
1725;SDS011;41776;48.260;8.928;2024-03-22T09:56:33;5.78;;;3.47;;
1725;SDS011;41776;48.260;8.928;2024-03-22T09:59:04;9.57;;;3.38;;
1725;SDS011;41776;48.260;8.928;2024-03-22T10:01:30;6.28;;;2.35;;
1725;SDS011;41776;48.260;8.928;2024-03-22T10:03:57;4.68;;;2.92;;
1725;SDS011;41776;48.260;8.928;2024-03-22T10:06:23;5.00;;;2.90;;
1725;SDS011;41776;48.260;8.928;2024-03-22T10:08:49;8.00;;;3.13;;
1725;SDS011;41776;48.260;8.928;2024-03-22T10:11:16;3.90;;;2.35;;
1725;SDS011;41776;48.260;8.928;2024-03-22T10:13:44;8.75;;;3.25;;
1725;SDS011;41776;48.260;8.928;2024-03-22T10:16:15;9.85;;;3.15;;
1725;SDS011;41776;48.260;8.928;2024-03-22T10:18:44;6.07;;;3.47;;
1725;SDS011;41776;48.260;8.928;2024-03-22T10:21:10;8.18;;;3.33;;
1725;SDS011;41776;48.260;8.928;2024-03-22T10:23:39;7.20;;;3.45;;
1725;SDS011;41776;48.260;8.928;2024-03-22T10:26:05;9.48;;;3.20;;
1725;SDS011;41776;48.260;8.928;2024-03-22T10:28:33;6.82;;;3.47;;
1725;SDS011;41776;48.260;8.928;2024-03-22T10:30:58;7.32;;;3.50;;
1725;SDS011;41776;48.260;8.928;2024-03-22T10:33:25;7.18;;;3.17;;
1725;SDS011;41776;48.260;8.928;2024-03-22T10:35:53;6.15;;;2.85;;
1725;SDS011;41776;48.260;8.928;2024-03-22T10:38:20;6.28;;;3.85;;
1725;SDS011;41776;48.260;8.928;2024-03-22T10:40:46;7.93;;;3.72;;
1725;SDS011;41776;48.260;8.928;2024-03-22T10:43:14;6.40;;;3.30;;
1725;SDS011;41776;48.260;8.928;2024-03-22T10:45:41;9.48;;;3.60;;
1725;SDS011;41776;48.260;8.928;2024-03-22T10:48:10;7.60;;;3.10;;
1725;SDS011;41776;48.260;8.928;2024-03-22T10:50:39;7.65;;;3.60;;
1725;SDS011;41776;48.260;8.928;2024-03-22T10:53:11;6.82;;;3.50;;
1725;SDS011;41776;48.260;8.928;2024-03-22T10:55:42;6.22;;;3.17;;
1725;SDS011;41776;48.260;8.928;2024-03-22T10:58:14;7.13;;;3.53;;
1725;SDS011;41776;48.260;8.928;2024-03-22T11:00:45;5.45;;;2.80;;
1725;SDS011;41776;48.260;8.928;2024-03-22T11:03:16;4.82;;;2.65;;
1725;SDS011;41776;48.260;8.928;2024-03-22T11:05:45;2.22;;;1.83;;
1725;SDS011;41776;48.260;8.928;2024-03-22T11:08:11;3.45;;;1.67;;
1725;SDS011;41776;48.260;8.928;2024-03-22T11:10:38;3.42;;;1.60;;
1725;SDS011;41776;48.260;8.928;2024-03-22T11:13:09;6.75;;;1.50;;
1725;SDS011;41776;48.260;8.928;2024-03-22T11:15:36;5.18;;;2.83;;
1725;SDS011;41776;48.260;8.928;2024-03-22T11:18:03;3.08;;;1.60;;
1725;SDS011;41776;48.260;8.928;2024-03-22T11:20:30;5.03;;;2.20;;
1725;SDS011;41776;48.260;8.928;2024-03-22T11:22:59;4.78;;;2.10;;
1725;SDS011;41776;48.260;8.928;2024-03-22T11:25:25;4.15;;;2.05;;
1725;SDS011;41776;48.260;8.928;2024-03-22T11:27:51;3.75;;;2.38;;
1725;SDS011;41776;48.260;8.928;2024-03-22T11:30:20;5.50;;;2.00;;
1725;SDS011;41776;48.260;8.928;2024-03-22T11:32:45;3.25;;;2.10;;
1725;SDS011;41776;48.260;8.928;2024-03-22T11:35:15;3.63;;;2.00;;
1725;SDS011;41776;48.260;8.928;2024-03-22T11:37:41;5.55;;;2.35;;
1725;SDS011;41776;48.260;8.928;2024-03-22T11:40:08;6.55;;;2.17;;
1725;SDS011;41776;48.260;8.928;2024-03-22T11:42:35;5.80;;;2.10;;
1725;SDS011;41776;48.260;8.928;2024-03-22T11:45:04;10.35;;;2.72;;
1725;SDS011;41776;48.260;8.928;2024-03-22T11:47:32;3.22;;;1.90;;
1725;SDS011;41776;48.260;8.928;2024-03-22T11:49:59;6.88;;;2.13;;
1725;SDS011;41776;48.260;8.928;2024-03-22T11:52:26;6.35;;;2.13;;
1725;SDS011;41776;48.260;8.928;2024-03-22T11:54:55;4.30;;;1.95;;
1725;SDS011;41776;48.260;8.928;2024-03-22T11:57:31;6.07;;;1.75;;
1725;SDS011;41776;48.260;8.928;2024-03-22T11:59:58;2.95;;;1.92;;
1725;SDS011;41776;48.260;8.928;2024-03-22T12:02:31;4.03;;;2.33;;
1725;SDS011;41776;48.260;8.928;2024-03-22T12:05:01;2.90;;;2.03;;
1725;SDS011;41776;48.260;8.928;2024-03-22T12:07:28;5.90;;;2.40;;
1725;SDS011;41776;48.260;8.928;2024-03-22T12:09:55;4.75;;;2.20;;
1725;SDS011;41776;48.260;8.928;2024-03-22T12:12:23;4.32;;;2.00;;
1725;SDS011;41776;48.260;8.928;2024-03-22T12:14:53;6.65;;;2.03;;
1725;SDS011;41776;48.260;8.928;2024-03-22T12:17:19;4.93;;;2.22;;
1725;SDS011;41776;48.260;8.928;2024-03-22T12:19:48;3.38;;;1.90;;
1725;SDS011;41776;48.260;8.928;2024-03-22T12:22:14;4.97;;;2.60;;
1725;SDS011;41776;48.260;8.928;2024-03-22T12:24:43;3.63;;;2.15;;
1725;SDS011;41776;48.260;8.928;2024-03-22T12:27:08;5.00;;;1.80;;
1725;SDS011;41776;48.260;8.928;2024-03-22T12:29:38;3.53;;;1.58;;
1725;SDS011;41776;48.260;8.928;2024-03-22T12:32:05;3.65;;;1.45;;
1725;SDS011;41776;48.260;8.928;2024-03-22T12:34:34;2.67;;;1.80;;
1725;SDS011;41776;48.260;8.928;2024-03-22T12:36:59;4.35;;;1.80;;
1725;SDS011;41776;48.260;8.928;2024-03-22T12:39:26;2.22;;;1.63;;
1725;SDS011;41776;48.260;8.928;2024-03-22T12:41:53;4.63;;;2.20;;
1725;SDS011;41776;48.260;8.928;2024-03-22T12:44:21;2.90;;;1.70;;
1725;SDS011;41776;48.260;8.928;2024-03-22T12:46:46;6.28;;;2.00;;
1725;SDS011;41776;48.260;8.928;2024-03-22T12:49:13;3.00;;;1.55;;
1725;SDS011;41776;48.260;8.928;2024-03-22T12:51:39;3.22;;;1.33;;
1725;SDS011;41776;48.260;8.928;2024-03-22T12:54:05;3.22;;;2.08;;
1725;SDS011;41776;48.260;8.928;2024-03-22T12:56:35;3.15;;;1.48;;
1725;SDS011;41776;48.260;8.928;2024-03-22T12:59:10;3.92;;;1.67;;
1725;SDS011;41776;48.260;8.928;2024-03-22T13:01:38;3.65;;;1.85;;
1725;SDS011;41776;48.260;8.928;2024-03-22T13:04:04;3.80;;;2.17;;
1725;SDS011;41776;48.260;8.928;2024-03-22T13:06:32;3.30;;;1.85;;
1725;SDS011;41776;48.260;8.928;2024-03-22T13:08:59;6.60;;;1.83;;
1725;SDS011;41776;48.260;8.928;2024-03-22T13:11:29;4.05;;;1.80;;
1725;SDS011;41776;48.260;8.928;2024-03-22T13:13:56;2.63;;;1.80;;
1725;SDS011;41776;48.260;8.928;2024-03-22T13:16:23;3.63;;;1.88;;
1725;SDS011;41776;48.260;8.928;2024-03-22T13:18:52;2.92;;;1.20;;
1725;SDS011;41776;48.260;8.928;2024-03-22T13:21:18;3.53;;;1.80;;
1725;SDS011;41776;48.260;8.928;2024-03-22T13:23:47;4.38;;;2.00;;
1725;SDS011;41776;48.260;8.928;2024-03-22T13:26:12;3.97;;;1.60;;
1725;SDS011;41776;48.260;8.928;2024-03-22T13:28:39;3.50;;;1.42;;
1725;SDS011;41776;48.260;8.928;2024-03-22T13:31:07;3.33;;;1.73;;
1725;SDS011;41776;48.260;8.928;2024-03-22T13:33:35;5.70;;;1.70;;
1725;SDS011;41776;48.260;8.928;2024-03-22T13:36:01;4.05;;;1.52;;
1725;SDS011;41776;48.260;8.928;2024-03-22T13:38:29;5.32;;;1.30;;
1725;SDS011;41776;48.260;8.928;2024-03-22T13:41:02;3.60;;;1.40;;
1725;SDS011;41776;48.260;8.928;2024-03-22T13:43:29;5.03;;;1.65;;
1725;SDS011;41776;48.260;8.928;2024-03-22T13:45:55;4.68;;;1.83;;
1725;SDS011;41776;48.260;8.928;2024-03-22T13:48:22;3.35;;;1.58;;
1725;SDS011;41776;48.260;8.928;2024-03-22T13:50:50;2.95;;;1.58;;
1725;SDS011;41776;48.260;8.928;2024-03-22T13:53:17;2.08;;;1.40;;
1725;SDS011;41776;48.260;8.928;2024-03-22T13:55:45;3.75;;;1.23;;
1725;SDS011;41776;48.260;8.928;2024-03-22T13:58:14;2.63;;;1.40;;
1725;SDS011;41776;48.260;8.928;2024-03-22T14:00:40;2.05;;;1.30;;
1725;SDS011;41776;48.260;8.928;2024-03-22T14:03:09;6.15;;;1.40;;
1725;SDS011;41776;48.260;8.928;2024-03-22T14:05:38;1.92;;;1.10;;
1725;SDS011;41776;48.260;8.928;2024-03-22T14:08:07;3.35;;;1.40;;
1725;SDS011;41776;48.260;8.928;2024-03-22T14:10:33;3.55;;;1.20;;
1725;SDS011;41776;48.260;8.928;2024-03-22T14:13:04;2.08;;;1.30;;
1725;SDS011;41776;48.260;8.928;2024-03-22T14:15:40;2.10;;;1.38;;
1725;SDS011;41776;48.260;8.928;2024-03-22T14:18:19;5.50;;;1.40;;
1725;SDS011;41776;48.260;8.928;2024-03-22T14:20:56;2.80;;;1.30;;
1725;SDS011;41776;48.260;8.928;2024-03-22T14:23:29;1.92;;;1.10;;
1725;SDS011;41776;48.260;8.928;2024-03-22T14:26:00;3.90;;;1.13;;
1725;SDS011;41776;48.260;8.928;2024-03-22T14:28:31;2.92;;;0.90;;
1725;SDS011;41776;48.260;8.928;2024-03-22T14:30:59;3.70;;;1.30;;
1725;SDS011;41776;48.260;8.928;2024-03-22T14:33:27;2.10;;;1.00;;
1725;SDS011;41776;48.260;8.928;2024-03-22T14:35:52;1.42;;;0.90;;
1725;SDS011;41776;48.260;8.928;2024-03-22T14:38:19;2.17;;;0.70;;
1725;SDS011;41776;48.260;8.928;2024-03-22T14:40:55;5.45;;;1.45;;
1725;SDS011;41776;48.260;8.928;2024-03-22T14:43:24;2.35;;;1.20;;
1725;SDS011;41776;48.260;8.928;2024-03-22T14:45:54;1.60;;;1.02;;
1725;SDS011;41776;48.260;8.928;2024-03-22T14:48:21;2.47;;;0.98;;
1725;SDS011;41776;48.260;8.928;2024-03-22T14:50:50;1.50;;;0.90;;